Great Bend, KS

12:07 AM CDT on April 01, 2015 (GMT -0500)
Eisenhower School Area | | Change Station
CLOSE
Current Station
Personal Weather Station
Location: Great Bend, KS
Elevation: 1860 ft
Nearby Weather Stations
Active Advisory: Fire Weather Watch

Elev 1860 ft 38.36 °N, 98.79 °W | Updated 24 seconds ago

Clear
Clear
63.9 °F
Feels Like 63.9 °F
N
5.0
Wind Variable Wind from South
Gusts 8.0 mph

Today
High -- | Low -- °F
--% Chance of Precip.
Yesterday
High -- | Low -- °F
Precip. -- in
7:20 AM 7:58 PM
Waxing Gibbous, 90% visible
Pressure 29.85 in
Visibility 10.0 miles
Clouds Clear
Dew Point 40 °F
Humidity 41%
Rainfall 0.00 in
Snow Depth Not available.
UV 0 out of 12
Pollen 9.90 out of 12
Air Quality Not available.
Flu Activity Not available.
METAR KGBD 010455Z AUTO 16012KT 10SM CLR 16/02 A2985 RMK AO1

More Conditions Fewer Conditions

Pressure 29.85 in
Visibility 10.0 miles
Clouds Clear
Dew Point 40 °F
Humidity 41%
Rainfall 0.00 in
Snow Depth Not available.
UV 0 out of 12
Pollen 9.90 out of 12
Air Quality Not available.
Flu Activity Not available.
METAR KGBD 010455Z AUTO 16012KT 10SM CLR 16/02 A2985 RMK AO1

More Conditions Fewer Conditions

10-Day Weather Forecast

Almanac

Astronomy

Apr. 01, 2015 Rise Set
Actual Time
Civil Twilight
Nautical Twilight
Astronomical Twilight
Moon
Length of Visible Light
Length of Day
Tomorrow will be .
, % of the Moon is Illuminated

Today's Extremes

State Highs State Lows

Community

WunderPhotos

Upload Photos

1,809,919 photos uploaded!

WunderBlogs® & News

Nearby

Air Quality

  Air Quality AQ Index Pollutant
Not available.

Snow Depth

Station Depth Elevation

Earthquake Activity

City Distance Mag. Time & Date
Minimum magnitude displayed is 2.5.

Coastal Water Temperatures

Place Temperature

Stations

Nearby Weather Stations

Station Location Temp. Windchill Dew Point Humidity Wind Precip. Elev Updated Type
                   
Fire Weather Watch
Statement as of 2:11 PM CDT on March 31, 2015

... Fire Weather Watch in effect from Wednesday afternoon through
Wednesday evening for extreme grassland fire danger for fire
weather zones 032... 033... 047... 048... 049... 050... 051 and 067...

The National Weather Service in Wichita has issued a Fire Weather
Watch for extreme grassland fire danger... which is in effect from
Wednesday afternoon through Wednesday evening.

* Extreme grassland fire danger... is forecast.

* Winds... south 20 to 30 mph with gusts up to 40 mph.

* Relative humidity... as low as 28 percent.

* Impacts... any fires that develop will likely spread rapidly
and become very difficult to control. Outdoor burning is not
recommended.

Precautionary/preparedness actions...

A Fire Weather Watch means that critical fire weather conditions
are forecast to occur. Listen for later forecasts and possible
red flag warnings.

Please advise the appropriate officials or fire crews in the
field of this fire weather product.



Ked